Talanta Solo Sailor — SJEP — position and weather

sailwx.info

Track history (hours):
 
Tides and Currents Weather Stations Pressure Air Temp Water Temp Dewpoint Dewpoint Depression Visibility Wind Speed Wind Dir Waves Ship Positions

Talanta Solo Sailor

Last reported at 2018-Jun-17 02:43 UTC. Time now 2018-Jun-20 19:16 UTC.
Position N 43°30' W 069°48'.

Length 12 m.

Type: Sailing vessel. MMSI: 265756360.

Date/timePositionNaut miles runAvg speedWind from/ knotsBaromVisibWave heightAir tempDewpointWater temp
2018-Jun-17 02:43N 43°30' W 069°48'2 8.0
2018-Jun-17 02:29N 43°31' W 069°50'4 7.6
2018-Jun-17 01:57N 43°33' W 069°55'4 8.0
2018-Jun-17 01:30N 43°35' W 069°59'4 7.5
2018-Jun-17 01:00N 43°37' W 070°04'4 7.3
2018-Jun-17 00:30N 43°39' W 070°08'3 5.9
2018-Jun-17 00:00N 43°41' W 070°11'3 5.4
2018-Jun-16 23:30N 43°44' W 070°11'1 1.0
2018-Jun-16 22:59N 43°43' W 070°12'0 0.0
2018-Jun-16 22:29N 43°43' W 070°12'0 0.0
2018-Jun-16 21:59N 43°43' W 070°12'0 0.0
2018-Jun-16 21:29N 43°43' W 070°12'0 0.0
2018-Jun-16 20:59N 43°43' W 070°12'0 0.0
2018-Jun-16 20:29N 43°43' W 070°12'0 0.0
2018-Jun-16 20:00N 43°43' W 070°12'  
2018-Jun-12 13:34N 43°44' W 070°12'0 0.0
2018-Jun-12 13:28N 43°44' W 070°12'0 0.0
2018-Jun-12 12:58N 43°44' W 070°12'0 0.4
2018-Jun-12 12:30N 43°43' W 070°12'3 5.1
2018-Jun-12 12:00N 43°41' W 070°13'2 4.2
2018-Jun-12 11:28N 43°39' W 070°15'0 0.0
2018-Jun-11 21:45N 43°39' W 070°15'0 0.0
2018-Jun-11 21:30N 43°39' W 070°15'  
Track history (hours):
 
Tides and Currents Weather Stations Pressure Air Temp Water Temp Dewpoint Dewpoint Depression Visibility Wind Speed Wind Dir Waves Ship Positions

Talanta Solo Sailor

Last reported at 2018-Jun-17 02:43 UTC. Time now 2018-Jun-20 19:16 UTC.
Position N 43°30' W 069°48'.

Length 12 m.

Type: Sailing vessel. MMSI: 265756360.

Date/timePositionNaut miles runAvg speedWind from/ knotsBaromVisibWave heightAir tempDewpointWater temp
2018-Jun-17 02:43N 43°30' W 069°48'2 8.0
2018-Jun-17 02:29N 43°31' W 069°50'4 7.6
2018-Jun-17 01:57N 43°33' W 069°55'4 8.0
2018-Jun-17 01:30N 43°35' W 069°59'4 7.5
2018-Jun-17 01:00N 43°37' W 070°04'4 7.3
2018-Jun-17 00:30N 43°39' W 070°08'3 5.9
2018-Jun-17 00:00N 43°41' W 070°11'3 5.4
2018-Jun-16 23:30N 43°44' W 070°11'1 1.0
2018-Jun-16 22:59N 43°43' W 070°12'0 0.0
2018-Jun-16 22:29N 43°43' W 070°12'0 0.0
2018-Jun-16 21:59N 43°43' W 070°12'0 0.0
2018-Jun-16 21:29N 43°43' W 070°12'0 0.0
2018-Jun-16 20:59N 43°43' W 070°12'0 0.0
2018-Jun-16 20:29N 43°43' W 070°12'0 0.0
2018-Jun-16 20:00N 43°43' W 070°12'  
2018-Jun-12 13:34N 43°44' W 070°12'0 0.0
2018-Jun-12 13:28N 43°44' W 070°12'0 0.0
2018-Jun-12 12:58N 43°44' W 070°12'0 0.4
2018-Jun-12 12:30N 43°43' W 070°12'3 5.1
2018-Jun-12 12:00N 43°41' W 070°13'2 4.2
2018-Jun-12 11:28N 43°39' W 070°15'0 0.0
2018-Jun-11 21:45N 43°39' W 070°15'0 0.0
2018-Jun-11 21:30N 43°39' W 070°15'  

Dump ship's entire track history